Howland, Maine
Current Conditions -  °F | °C
As of 6:53 PM on Wednesday 22 Oct 2014 (Local Time) from KMLT Reporting Station
Overcast Overcast  
Wind Chill: 40°   Ceiling: 8000
Heat Index: 46°   Visibility: 10mi
Dew Point: 39°   Wind: 13mph
Humidity: 76%   Direction: 50°NE
Pressure: 30.26"   Gusts: 22mph
Location:  45.24°N, 68.66°W
Report Text: KMLT 222253Z AUTO 05011G19KT 10SM SCT050 OVC080 08/04 A3026 RMK AO2 RAE30 SLP254 P0001 T00780039
Loading
Personal Weather Stations






























Interactive Weather Map
Tropical Storm Tracking
New forecast layout! Learn more

10-Day Weather Forecast

Advertisements
Track Severe Weather on mobile